Time;durP1;ratioP1;P1;durP2;ratioP2;P2;SDS_P1;SDS_P2;PMS_P1;PMS_P2;Temp;Humidity;BMP_temperature;BMP_pressure;BME280_temperature;BME280_humidity;BME280_pressure;Samples;Min_cycle;Max_cycle;Signal;HPM_P1;HPM_P2
2023/08/25 00:00:20;;;;;;;;;;;21.60;99.90;;;;;;7336967;19;110484;-64
2023/08/25 00:02:47;;;;;;;;;;;21.60;99.90;;;;;;7336772;19;110235;-64
2023/08/25 00:05:14;;;;;;;;;;;21.50;99.90;;;;;;7334705;19;109018;-64
2023/08/25 00:07:42;;;;;;;;;;;21.50;99.90;;;;;;7337481;19;108828;-64
2023/08/25 00:10:09;;;;;;;;;;;21.40;99.90;;;;;;7336708;19;109592;-64
2023/08/25 00:12:36;;;;;;;;;;;21.40;99.90;;;;;;7332465;19;110014;-64
2023/08/25 00:15:04;;;;;;;;;;;21.40;99.90;;;;;;7338794;19;109091;-64
2023/08/25 00:17:32;;;;;;;;;;;21.30;99.90;;;;;;7340198;19;109122;-64
2023/08/25 00:20:00;;;;;;;;;;;21.30;99.90;;;;;;7335994;19;110580;-64
2023/08/25 00:22:28;;;;;;;;;;;21.20;99.90;;;;;;7336931;19;109263;-64
2023/08/25 00:24:56;;;;;;;;;;;21.20;99.90;;;;;;7337459;19;108731;-64
2023/08/25 00:27:23;;;;;;;;;;;21.10;99.90;;;;;;7334125;19;109449;-64
2023/08/25 00:29:52;;;;;;;;;;;21.10;99.90;;;;;;7334001;19;110542;-64
2023/08/25 00:32:20;;;;;;;;;;;21.10;99.90;;;;;;7335636;19;111348;-65
2023/08/25 00:34:47;;;;;;;;;;;21.10;99.90;;;;;;7333426;19;109121;-64
2023/08/25 00:37:14;;;;;;;;;;;21.10;99.90;;;;;;7333491;19;109131;-64
2023/08/25 00:39:41;;;;;;;;;;;21.10;99.90;;;;;;7341371;19;109163;-64
2023/08/25 00:42:08;;;;;;;;;;;21.10;99.90;;;;;;7332202;19;110800;-64
2023/08/25 00:44:35;;;;;;;;;;;21.10;99.90;;;;;;7335465;19;110275;-64
2023/08/25 00:47:03;;;;;;;;;;;21.10;99.90;;;;;;7331404;19;108743;-64
2023/08/25 00:49:31;;;;;;;;;;;21.00;99.90;;;;;;7336405;19;110238;-64
2023/08/25 00:51:58;;;;;;;;;;;21.00;99.90;;;;;;7334063;19;108598;-64
2023/08/25 00:54:27;;;;;;;;;;;20.90;99.90;;;;;;7336554;19;109544;-64
2023/08/25 00:56:54;;;;;;;;;;;20.90;99.90;;;;;;7333557;19;111210;-64
2023/08/25 00:59:22;;;;;;;;;;;20.90;99.90;;;;;;7334644;19;110115;-64
2023/08/25 01:01:49;;;;;;;;;;;20.80;99.90;;;;;;7339996;19;108567;-64
2023/08/25 01:04:17;;;;;;;;;;;20.70;99.90;;;;;;7334079;19;109524;-64
2023/08/25 01:06:44;;;;;;;;;;;20.70;99.90;;;;;;7335476;19;109132;-64
2023/08/25 01:09:12;;;;;;;;;;;20.70;99.90;;;;;;7332378;19;110546;-64
2023/08/25 01:11:58;;;;;;;;;;;20.70;99.90;;;;;;7334366;19;111696;-64
2023/08/25 01:14:34;;;;;;;;;;;20.70;99.90;;;;;;7332074;19;112859;-64
2023/08/25 01:17:22;;;;;;;;;;;20.70;99.90;;;;;;7333674;19;109280;-64
2023/08/25 01:19:54;;;;;;;;;;;20.70;99.90;;;;;;7333739;19;108436;-64
2023/08/25 01:22:44;;;;;;;;;;;20.70;99.90;;;;;;7334014;19;108696;-64
2023/08/25 01:25:30;;;;;;;;;;;20.60;99.90;;;;;;7338149;19;109413;-65
2023/08/25 01:27:58;;;;;;;;;;;20.50;99.90;;;;;;7333829;19;111934;-64
2023/08/25 01:30:26;;;;;;;;;;;20.50;99.90;;;;;;7332477;19;110531;-65
2023/08/25 01:32:54;;;;;;;;;;;20.40;99.90;;;;;;7340957;19;108772;-64
2023/08/25 01:35:30;;;;;;;;;;;20.50;99.90;;;;;;7328372;19;109710;-64
2023/08/25 01:38:04;;;;;;;;;;;20.50;99.90;;;;;;7331329;19;110406;-64
2023/08/25 01:40:38;;;;;;;;;;;20.40;99.90;;;;;;7336038;19;108510;-64
2023/08/25 01:43:08;;;;;;;;;;;20.40;99.90;;;;;;7328511;19;108954;-64
2023/08/25 01:45:36;;;;;;;;;;;20.40;99.90;;;;;;7340041;19;109707;-64
2023/08/25 01:48:05;;;;;;;;;;;20.40;99.90;;;;;;7334659;19;108838;-64
2023/08/25 01:50:34;;;;;;;;;;;20.40;99.90;;;;;;7333846;19;109852;-64
2023/08/25 01:53:05;;;;;;;;;;;20.40;99.90;;;;;;7334385;19;120276;-64
2023/08/25 01:55:32;;;;;;;;;;;20.40;99.90;;;;;;7333275;19;110628;-63
2023/08/25 01:57:59;;;;;;;;;;;20.40;99.90;;;;;;7330243;19;109820;-64
2023/08/25 02:00:26;;;;;;;;;;;20.30;99.90;;;;;;7330551;19;109728;-64
2023/08/25 02:02:54;;;;;;;;;;;20.30;99.90;;;;;;7337181;19;108249;-64
2023/08/25 02:05:22;;;;;;;;;;;20.30;99.90;;;;;;7329371;19;110665;-64
2023/08/25 02:07:49;;;;;;;;;;;20.20;99.90;;;;;;7337729;19;110107;-64
2023/08/25 02:10:17;;;;;;;;;;;20.20;99.90;;;;;;7330895;19;110881;-64
2023/08/25 02:12:44;;;;;;;;;;;20.10;99.90;;;;;;7331778;19;108702;-64
2023/08/25 02:15:11;;;;;;;;;;;20.10;99.90;;;;;;7333929;19;109044;-65
2023/08/25 02:17:40;;;;;;;;;;;20.10;99.90;;;;;;7332177;19;110128;-64
2023/08/25 02:20:07;;;;;;;;;;;20.00;99.90;;;;;;7333235;19;108426;-64
2023/08/25 02:22:36;;;;;;;;;;;20.00;99.90;;;;;;7333653;19;108844;-64
2023/08/25 02:25:04;;;;;;;;;;;20.00;99.90;;;;;;7334862;19;110721;-64
2023/08/25 02:27:31;;;;;;;;;;;19.90;99.90;;;;;;7332044;19;110281;-64
2023/08/25 02:29:58;;;;;;;;;;;19.90;99.90;;;;;;7336965;19;110414;-64
2023/08/25 02:32:26;;;;;;;;;;;19.90;99.90;;;;;;7330767;19;108472;-64
2023/08/25 02:34:53;;;;;;;;;;;19.90;99.90;;;;;;7333542;19;108985;-64
2023/08/25 02:37:20;;;;;;;;;;;19.90;99.90;;;;;;7338904;19;109673;-63
2023/08/25 02:39:47;;;;;;;;;;;19.90;99.90;;;;;;7338469;19;109224;-64
2023/08/25 02:42:14;;;;;;;;;;;19.90;99.90;;;;;;7337655;19;109854;-65
2023/08/25 02:44:41;;;;;;;;;;;19.90;99.90;;;;;;7337881;19;110179;-63
2023/08/25 02:47:09;;;;;;;;;;;19.90;99.90;;;;;;7342517;19;109182;-64
2023/08/25 02:49:38;;;;;;;;;;;19.80;99.90;;;;;;7338386;19;109738;-64
2023/08/25 02:52:05;;;;;;;;;;;19.70;99.90;;;;;;7344559;19;109077;-64
2023/08/25 02:54:32;;;;;;;;;;;19.70;99.90;;;;;;7340499;19;108836;-64
2023/08/25 02:57:00;;;;;;;;;;;19.70;99.90;;;;;;7340131;19;109494;-64
2023/08/25 02:59:27;;;;;;;;;;;19.70;99.90;;;;;;7338893;19;110062;-64
2023/08/25 03:01:54;;;;;;;;;;;19.60;99.90;;;;;;7338700;19;108232;-64
2023/08/25 03:04:22;;;;;;;;;;;19.60;99.90;;;;;;7338406;19;110470;-64
2023/08/25 03:06:49;;;;;;;;;;;19.60;99.90;;;;;;7340665;19;110042;-64
2023/08/25 03:09:19;;;;;;;;;;;19.50;99.90;;;;;;7338218;19;108765;-65
2023/08/25 03:11:46;;;;;;;;;;;19.50;99.90;;;;;;7338075;19;110267;-63
2023/08/25 03:14:14;;;;;;;;;;;19.50;99.90;;;;;;7342095;19;109302;-64
2023/08/25 03:16:41;;;;;;;;;;;19.50;99.90;;;;;;7340144;19;109137;-63
2023/08/25 03:19:08;;;;;;;;;;;19.50;99.90;;;;;;7338151;19;109904;-64
2023/08/25 03:21:35;;;;;;;;;;;19.50;99.90;;;;;;7339360;19;111216;-64
2023/08/25 03:24:02;;;;;;;;;;;19.50;99.90;;;;;;7339227;19;109111;-64
2023/08/25 03:26:30;;;;;;;;;;;19.50;99.90;;;;;;7338892;19;110942;-64
2023/08/25 03:28:57;;;;;;;;;;;19.40;99.90;;;;;;7338478;19;109663;-64
2023/08/25 03:31:24;;;;;;;;;;;19.40;99.90;;;;;;7334372;19;110524;-64
2023/08/25 03:33:51;;;;;;;;;;;19.40;99.90;;;;;;7338691;19;108730;-64
2023/08/25 03:36:18;;;;;;;;;;;19.40;99.90;;;;;;7345078;19;108644;-64
2023/08/25 03:38:45;;;;;;;;;;;19.30;99.90;;;;;;7338648;19;108664;-64
2023/08/25 03:41:12;;;;;;;;;;;19.30;99.90;;;;;;7338780;19;109318;-64
2023/08/25 03:43:39;;;;;;;;;;;19.30;99.90;;;;;;7335855;19;115108;-63
2023/08/25 03:46:07;;;;;;;;;;;19.30;99.90;;;;;;7337527;19;108475;-64
2023/08/25 03:48:34;;;;;;;;;;;19.40;99.90;;;;;;7331713;19;109262;-64
2023/08/25 03:51:01;;;;;;;;;;;19.30;99.90;;;;;;7337575;19;109282;-64
2023/08/25 03:53:28;;;;;;;;;;;19.30;99.90;;;;;;7333944;19;109392;-64
2023/08/25 03:55:55;;;;;;;;;;;19.30;99.90;;;;;;7343700;19;108562;-64
2023/08/25 03:58:23;;;;;;;;;;;19.30;99.90;;;;;;7333673;19;108962;-64
2023/08/25 04:00:50;;;;;;;;;;;19.30;99.90;;;;;;7339130;19;109581;-64
2023/08/25 04:03:17;;;;;;;;;;;19.30;99.90;;;;;;7335328;19;110421;-63
2023/08/25 04:05:45;;;;;;;;;;;19.30;99.90;;;;;;7337158;19;109060;-64
2023/08/25 04:08:12;;;;;;;;;;;19.20;99.90;;;;;;7336107;19;109180;-64
2023/08/25 04:10:41;;;;;;;;;;;19.20;99.90;;;;;;7329845;19;110565;-64
2023/08/25 04:13:08;;;;;;;;;;;19.10;99.90;;;;;;7335025;19;109256;-64
2023/08/25 04:15:36;;;;;;;;;;;19.10;99.90;;;;;;7337454;19;109521;-64
2023/08/25 04:18:03;;;;;;;;;;;19.10;99.90;;;;;;7341384;19;109229;-64
2023/08/25 04:20:30;;;;;;;;;;;19.00;99.90;;;;;;7338978;19;109163;-64
2023/08/25 04:22:59;;;;;;;;;;;19.00;99.90;;;;;;7334989;19;110504;-64
2023/08/25 04:25:27;;;;;;;;;;;19.00;99.90;;;;;;7336229;19;108899;-64
2023/08/25 04:27:54;;;;;;;;;;;19.00;99.90;;;;;;7335711;19;108737;-64
2023/08/25 04:30:22;;;;;;;;;;;19.10;99.90;;;;;;7333532;19;109197;-64
2023/08/25 04:32:50;;;;;;;;;;;19.10;99.90;;;;;;7334904;19;114738;-64
2023/08/25 04:35:18;;;;;;;;;;;19.20;99.90;;;;;;7335435;19;109386;-64
2023/08/25 04:37:47;;;;;;;;;;;19.20;99.90;;;;;;7335143;19;110986;-64
2023/08/25 04:40:14;;;;;;;;;;;19.20;99.90;;;;;;7339167;19;108337;-64
2023/08/25 04:42:42;;;;;;;;;;;19.20;99.90;;;;;;7336730;19;110199;-64
2023/08/25 04:45:09;;;;;;;;;;;19.30;99.90;;;;;;7333977;19;109236;-64
2023/08/25 04:47:37;;;;;;;;;;;19.30;99.90;;;;;;7337670;19;109575;-64
2023/08/25 04:50:06;;;;;;;;;;;19.40;99.90;;;;;;7337546;19;109198;-63
2023/08/25 04:52:34;;;;;;;;;;;19.30;99.90;;;;;;7338956;19;108826;-64
2023/08/25 04:55:02;;;;;;;;;;;19.40;99.90;;;;;;7336852;19;108763;-64
2023/08/25 04:57:30;;;;;;;;;;;19.40;99.90;;;;;;7334483;19;109119;-64
2023/08/25 04:59:57;;;;;;;;;;;19.40;99.90;;;;;;7332659;19;110939;-64
2023/08/25 05:02:24;;;;;;;;;;;19.50;99.90;;;;;;7342421;19;109582;-64
2023/08/25 05:04:51;;;;;;;;;;;19.60;99.90;;;;;;7335003;19;109060;-64
2023/08/25 05:07:19;;;;;;;;;;;19.60;99.90;;;;;;7335386;19;109544;-64
2023/08/25 05:09:46;;;;;;;;;;;19.70;99.90;;;;;;7334980;19;109157;-64
2023/08/25 05:12:13;;;;;;;;;;;19.70;99.90;;;;;;7334064;19;108859;-64
2023/08/25 05:14:41;;;;;;;;;;;19.70;99.90;;;;;;7333604;19;108765;-64
2023/08/25 05:17:16;;;;;;;;;;;19.70;99.90;;;;;;7333273;19;110144;-64
2023/08/25 05:19:43;;;;;;;;;;;19.70;99.90;;;;;;7333395;19;109365;-64
2023/08/25 05:22:10;;;;;;;;;;;19.70;99.90;;;;;;7333233;19;108519;-64
2023/08/25 05:24:37;;;;;;;;;;;19.80;99.90;;;;;;7337000;19;110298;-64
2023/08/25 05:27:04;;;;;;;;;;;19.80;99.90;;;;;;7333021;19;110290;-64
2023/08/25 05:29:31;;;;;;;;;;;19.80;99.90;;;;;;7333922;19;110296;-64
2023/08/25 05:31:59;;;;;;;;;;;19.90;99.90;;;;;;7332267;19;108820;-64
2023/08/25 05:34:27;;;;;;;;;;;20.00;99.90;;;;;;7334227;19;108705;-64
2023/08/25 05:36:54;;;;;;;;;;;20.00;99.90;;;;;;7332083;19;109111;-64
2023/08/25 05:39:22;;;;;;;;;;;20.00;99.90;;;;;;7332881;19;108592;-64
2023/08/25 05:41:49;;;;;;;;;;;20.10;99.90;;;;;;7334979;19;108795;-64
2023/08/25 05:44:16;;;;;;;;;;;20.10;99.90;;;;;;7331835;19;108904;-64
2023/08/25 05:46:44;;;;;;;;;;;20.10;99.90;;;;;;7338412;19;108728;-63
2023/08/25 05:49:11;;;;;;;;;;;20.20;99.90;;;;;;7331267;19;109954;-64
2023/08/25 05:51:38;;;;;;;;;;;20.20;99.90;;;;;;7334043;19;109698;-63
2023/08/25 05:54:06;;;;;;;;;;;20.20;99.90;;;;;;7332785;19;108955;-64
2023/08/25 05:56:33;;;;;;;;;;;20.20;99.90;;;;;;7332476;19;109759;-64
2023/08/25 05:59:00;;;;;;;;;;;20.30;99.90;;;;;;7334534;19;109419;-64
2023/08/25 06:01:28;;;;;;;;;;;20.20;99.90;;;;;;7331611;19;108734;-64
2023/08/25 06:03:59;;;;;;;;;;;20.20;99.90;;;;;;7335030;19;110136;-64
2023/08/25 06:06:26;;;;;;;;;;;20.30;99.90;;;;;;7337934;19;108857;-64
2023/08/25 06:08:54;;;;;;;;;;;20.30;99.90;;;;;;7333419;19;110171;-64
2023/08/25 06:11:22;;;;;;;;;;;20.30;99.90;;;;;;7328793;19;108866;-64
2023/08/25 06:13:49;;;;;;;;;;;20.30;99.90;;;;;;7335783;19;108745;-65
2023/08/25 06:16:16;;;;;;;;;;;20.30;99.90;;;;;;7330765;19;110089;-65
2023/08/25 06:18:44;;;;;;;;;;;20.40;99.90;;;;;;7332820;19;108299;-64
2023/08/25 06:21:11;;;;;;;;;;;20.40;99.90;;;;;;7328353;19;108401;-65
2023/08/25 06:23:38;;;;;;;;;;;20.40;99.90;;;;;;7331640;19;111288;-65
2023/08/25 06:26:06;;;;;;;;;;;20.40;99.90;;;;;;7335213;19;108968;-65
2023/08/25 06:28:33;;;;;;;;;;;20.40;99.90;;;;;;7337519;19;109468;-65
2023/08/25 06:31:00;;;;;;;;;;;20.40;99.90;;;;;;7334056;19;109396;-65
2023/08/25 06:33:29;;;;;;;;;;;20.40;99.90;;;;;;7330785;19;109683;-65
2023/08/25 06:35:57;;;;;;;;;;;20.40;99.90;;;;;;7332687;19;109091;-65
2023/08/25 06:38:24;;;;;;;;;;;20.40;99.90;;;;;;7329409;19;109944;-66
2023/08/25 06:40:52;;;;;;;;;;;20.30;99.90;;;;;;7333322;19;109207;-66
2023/08/25 06:43:19;;;;;;;;;;;20.30;99.90;;;;;;7328473;19;110376;-66
2023/08/25 06:45:46;;;;;;;;;;;20.40;99.90;;;;;;7331054;19;110420;-66
2023/08/25 06:48:14;;;;;;;;;;;20.40;99.90;;;;;;7330297;19;110521;-66
2023/08/25 06:50:41;;;;;;;;;;;20.40;99.90;;;;;;7337055;19;109376;-66
2023/08/25 06:53:08;;;;;;;;;;;20.40;99.90;;;;;;7332208;19;109364;-66
2023/08/25 06:55:35;;;;;;;;;;;20.40;99.90;;;;;;7332454;19;109390;-67
2023/08/25 06:58:03;;;;;;;;;;;20.50;99.90;;;;;;7331888;19;109350;-71
2023/08/25 07:00:30;;;;;;;;;;;20.50;99.90;;;;;;7330890;19;109168;-67
2023/08/25 07:02:57;;;;;;;;;;;20.50;99.90;;;;;;7332096;19;110118;-66
2023/08/25 07:05:25;;;;;;;;;;;20.60;99.90;;;;;;7333244;19;109562;-66
2023/08/25 07:07:52;;;;;;;;;;;20.60;99.90;;;;;;7333104;19;109791;-75
2023/08/25 07:10:20;;;;;;;;;;;20.70;99.90;;;;;;7327880;19;110227;-75
2023/08/25 07:12:47;;;;;;;;;;;20.70;99.90;;;;;;7336911;19;108801;-75
2023/08/25 07:15:14;;;;;;;;;;;20.80;99.90;;;;;;7334246;19;110491;-73
2023/08/25 07:17:41;;;;;;;;;;;20.80;99.90;;;;;;7334232;19;108879;-70
2023/08/25 07:20:09;;;;;;;;;;;20.90;99.90;;;;;;7330643;19;108615;-71
2023/08/25 07:22:36;;;;;;;;;;;20.90;99.90;;;;;;7336123;19;110353;-73
2023/08/25 07:25:03;;;;;;;;;;;20.90;99.90;;;;;;7337786;19;109899;-70
2023/08/25 07:27:30;;;;;;;;;;;20.90;99.90;;;;;;7340064;19;108735;-68
2023/08/25 07:32:51;;;;;;;;;;;21.00;99.90;;;;;;7345444;19;108549;-70
2023/08/25 07:35:18;;;;;;;;;;;21.00;99.90;;;;;;7341670;19;109196;-66
2023/08/25 07:37:45;;;;;;;;;;;21.10;99.90;;;;;;7336841;19;108772;-67
2023/08/25 07:40:12;;;;;;;;;;;21.00;99.90;;;;;;7337098;19;108931;-66
2023/08/25 07:42:39;;;;;;;;;;;21.00;99.90;;;;;;7335692;19;110029;-66
2023/08/25 07:45:07;;;;;;;;;;;21.00;99.90;;;;;;7340722;19;108702;-66
2023/08/25 07:47:35;;;;;;;;;;;21.00;99.90;;;;;;7339166;19;109605;-87
2023/08/25 07:50:03;;;;;;;;;;;21.00;99.90;;;;;;7348899;19;109135;-87
2023/08/25 07:52:30;;;;;;;;;;;21.00;99.90;;;;;;7353619;19;108809;-87
2023/08/25 07:54:57;;;;;;;;;;;21.00;99.90;;;;;;7354793;19;108580;-86
2023/08/25 07:57:24;;;;;;;;;;;21.00;99.90;;;;;;7348188;19;108548;-88
2023/08/25 07:59:51;;;;;;;;;;;21.00;99.90;;;;;;7345144;19;109650;-87
2023/08/25 08:02:18;;;;;;;;;;;21.00;99.90;;;;;;7343529;19;113065;-87
2023/08/25 08:04:45;;;;;;;;;;;21.00;99.90;;;;;;7344102;19;109025;-89
2023/08/25 08:07:13;;;;;;;;;;;21.00;99.90;;;;;;7343378;19;108181;-89
2023/08/25 08:09:40;;;;;;;;;;;21.00;99.90;;;;;;7342057;19;109925;-90
2023/08/25 08:12:07;;;;;;;;;;;21.10;99.90;;;;;;7344575;19;108377;-92
2023/08/25 08:14:36;;;;;;;;;;;21.10;99.90;;;;;;7343659;19;109457;-93
2023/08/25 08:17:12;;;;;;;;;;;21.10;99.90;;;;;;7354197;19;108626;-91
2023/08/25 08:19:39;;;;;;;;;;;21.10;99.90;;;;;;7345057;19;109513;-90
2023/08/25 08:22:06;;;;;;;;;;;21.10;99.90;;;;;;7344820;19;109962;-90
2023/08/25 08:24:34;;;;;;;;;;;21.00;99.90;;;;;;7340942;19;108463;-88
2023/08/25 08:27:16;;;;;;;;;;;21.10;99.90;;;;;;7343601;19;108245;-89
2023/08/25 08:29:47;;;;;;;;;;;21.10;99.90;;;;;;7341854;19;109474;-89
2023/08/25 08:32:14;;;;;;;;;;;21.10;99.90;;;;;;7339675;19;110243;-88
2023/08/25 08:34:42;;;;;;;;;;;21.00;99.90;;;;;;7337029;19;111070;-89
2023/08/25 08:37:09;;;;;;;;;;;21.00;99.90;;;;;;7344369;19;110729;-88
2023/08/25 08:39:39;;;;;;;;;;;20.90;99.90;;;;;;7345017;19;110338;-89
2023/08/25 08:42:09;;;;;;;;;;;21.00;99.90;;;;;;7339230;19;113012;-89
2023/08/25 08:44:37;;;;;;;;;;;21.00;99.90;;;;;;7336041;19;109055;-89
2023/08/25 08:47:05;;;;;;;;;;;21.00;99.90;;;;;;7339988;19;109493;-88
2023/08/25 08:49:36;;;;;;;;;;;21.00;99.90;;;;;;7331072;19;111798;-88
2023/08/25 08:52:05;;;;;;;;;;;21.10;99.90;;;;;;7331647;19;109254;-88
2023/08/25 08:54:36;;;;;;;;;;;21.20;99.90;;;;;;7329496;19;111864;-87
2023/08/25 08:57:04;;;;;;;;;;;21.20;99.90;;;;;;7331176;19;110532;-88
2023/08/25 08:59:31;;;;;;;;;;;21.20;99.90;;;;;;7333639;19;109267;-87
2023/08/25 09:01:58;;;;;;;;;;;21.30;99.90;;;;;;7338757;19;109808;-88
2023/08/25 09:04:29;;;;;;;;;;;21.30;99.90;;;;;;7327840;19;109392;-87
2023/08/25 09:06:58;;;;;;;;;;;21.30;99.90;;;;;;7330207;19;108995;-88
2023/08/25 09:09:25;;;;;;;;;;;21.40;99.90;;;;;;7327451;19;112218;-87
2023/08/25 09:11:52;;;;;;;;;;;21.50;99.90;;;;;;7330355;19;109119;-86
2023/08/25 09:14:24;;;;;;;;;;;21.50;99.90;;;;;;7330649;19;109770;-87
2023/08/25 09:16:55;;;;;;;;;;;21.50;99.90;;;;;;7334523;19;110286;-87
2023/08/25 09:19:23;;;;;;;;;;;21.60;99.90;;;;;;7327396;19;109839;-88
2023/08/25 09:21:50;;;;;;;;;;;21.70;99.90;;;;;;7328497;19;108781;-87
2023/08/25 09:24:19;;;;;;;;;;;21.80;99.90;;;;;;7333321;19;111832;-88
2023/08/25 09:26:46;;;;;;;;;;;21.90;99.90;;;;;;7328591;19;109132;-87
2023/08/25 09:29:16;;;;;;;;;;;22.00;99.90;;;;;;7333076;19;111200;-87
2023/08/25 09:31:44;;;;;;;;;;;22.10;99.90;;;;;;7323888;19;108624;-87
2023/08/25 09:34:18;;;;;;;;;;;22.20;99.90;;;;;;7324592;19;111115;-87
2023/08/25 09:36:53;;;;;;;;;;;22.20;99.90;;;;;;7328518;19;109701;-87
2023/08/25 09:39:20;;;;;;;;;;;22.20;99.90;;;;;;7324681;19;109374;-85
2023/08/25 09:41:48;;;;;;;;;;;22.20;99.90;;;;;;7328340;19;109498;-87
2023/08/25 09:44:18;;;;;;;;;;;22.30;99.90;;;;;;7325260;19;110576;-87
2023/08/25 09:46:45;;;;;;;;;;;22.30;99.90;;;;;;7333289;19;111107;-87
2023/08/25 09:49:13;;;;;;;;;;;22.40;99.90;;;;;;7322972;19;110519;-86
2023/08/25 09:51:44;;;;;;;;;;;22.50;99.90;;;;;;7321664;19;111754;-86
2023/08/25 09:54:13;;;;;;;;;;;22.60;99.90;;;;;;7328423;19;110727;-88
2023/08/25 09:56:41;;;;;;;;;;;22.70;99.90;;;;;;7326205;19;111970;-87
2023/08/25 09:59:08;;;;;;;;;;;22.70;99.90;;;;;;7326476;19;111184;-88
2023/08/25 10:01:42;;;;;;;;;;;22.70;99.90;;;;;;7324235;19;111894;-87
2023/08/25 10:04:10;;;;;;;;;;;22.80;99.90;;;;;;7324446;19;110208;-88
2023/08/25 10:06:39;;;;;;;;;;;22.90;99.90;;;;;;7331575;19;109572;-88
2023/08/25 10:09:07;;;;;;;;;;;22.90;99.90;;;;;;7327852;19;112224;-88
2023/08/25 10:11:34;;;;;;;;;;;23.00;99.90;;;;;;7322426;19;110148;-89
2023/08/25 10:14:02;;;;;;;;;;;23.00;99.90;;;;;;7330604;19;108991;-88
2023/08/25 10:16:31;;;;;;;;;;;23.00;99.90;;;;;;7323340;19;112137;-89
2023/08/25 10:18:58;;;;;;;;;;;23.00;99.90;;;;;;7326978;19;109507;-89
2023/08/25 10:21:50;;;;;;;;;;;23.00;99.90;;;;;;7326014;19;111324;-87
2023/08/25 10:24:20;;;;;;;;;;;22.90;99.90;;;;;;7325721;19;109127;-88
2023/08/25 10:26:49;;;;;;;;;;;22.90;99.90;;;;;;7323306;19;110327;-88
2023/08/25 10:29:17;;;;;;;;;;;22.90;99.90;;;;;;7328315;19;110825;-89
2023/08/25 10:31:47;;;;;;;;;;;22.90;99.90;;;;;;7323830;19;113421;-88
2023/08/25 10:34:33;;;;;;;;;;;22.90;99.90;;;;;;7324443;19;110932;-87
2023/08/25 10:37:10;;;;;;;;;;;22.80;99.90;;;;;;7318567;19;111498;-89
2023/08/25 10:39:56;;;;;;;;;;;22.80;99.90;;;;;;7325583;19;110313;-88
2023/08/25 10:42:29;;;;;;;;;;;22.90;99.90;;;;;;7329473;19;109647;-88
2023/08/25 10:45:06;;;;;;;;;;;22.90;99.90;;;;;;7319388;19;111323;-88
2023/08/25 10:47:38;;;;;;;;;;;22.90;99.90;;;;;;7323337;19;110761;-89
2023/08/25 10:50:06;;;;;;;;;;;22.90;99.90;;;;;;7324694;19;109147;-88
2023/08/25 10:52:33;;;;;;;;;;;22.90;99.90;;;;;;7321802;19;110126;-89
2023/08/25 10:55:20;;;;;;;;;;;22.80;99.90;;;;;;7324944;19;109543;-86
2023/08/25 10:57:51;;;;;;;;;;;22.80;99.90;;;;;;7334256;19;109232;-88
2023/08/25 11:00:25;;;;;;;;;;;22.90;99.90;;;;;;7329119;19;108892;-87
2023/08/25 11:02:55;;;;;;;;;;;22.90;99.90;;;;;;7329053;19;111199;-87
2023/08/25 11:05:28;;;;;;;;;;;23.00;99.90;;;;;;7327842;19;111885;-87
2023/08/25 11:07:56;;;;;;;;;;;22.90;99.90;;;;;;7333598;19;110622;-86
2023/08/25 11:10:24;;;;;;;;;;;22.90;99.90;;;;;;7328061;19;109350;-87
2023/08/25 11:12:53;;;;;;;;;;;22.90;99.90;;;;;;7327459;19;110653;-88
2023/08/25 11:15:37;;;;;;;;;;;22.90;99.90;;;;;;7332637;19;110107;-88
2023/08/25 11:18:05;;;;;;;;;;;22.90;99.90;;;;;;7330535;19;113936;-86
2023/08/25 11:20:42;;;;;;;;;;;22.80;99.90;;;;;;7330284;19;109108;-86
2023/08/25 11:23:10;;;;;;;;;;;22.80;99.90;;;;;;7330662;19;109628;-86
2023/08/25 11:25:46;;;;;;;;;;;22.70;99.90;;;;;;7335902;19;110353;-86
2023/08/25 11:28:15;;;;;;;;;;;22.70;99.90;;;;;;7327428;19;111223;-86
2023/08/25 11:30:42;;;;;;;;;;;22.70;99.90;;;;;;7330051;19;111639;-87
2023/08/25 11:33:09;;;;;;;;;;;22.80;99.90;;;;;;7330245;19;112314;-88
2023/08/25 11:35:37;;;;;;;;;;;22.80;99.90;;;;;;7330286;19;110088;-86
2023/08/25 11:38:05;;;;;;;;;;;22.90;99.90;;;;;;7333807;19;112345;-86
2023/08/25 11:40:38;;;;;;;;;;;22.90;99.90;;;;;;7327295;19;114747;-86
2023/08/25 11:43:05;;;;;;;;;;;22.90;99.90;;;;;;7328927;19;110130;-86
2023/08/25 11:45:32;;;;;;;;;;;23.00;99.90;;;;;;7329221;19;111943;-87
2023/08/25 11:47:59;;;;;;;;;;;23.10;99.90;;;;;;7330626;19;111647;-88
2023/08/25 11:50:27;;;;;;;;;;;23.00;99.90;;;;;;7326078;19;109101;-87
2023/08/25 11:52:54;;;;;;;;;;;23.10;99.90;;;;;;7330201;19;109597;-88
2023/08/25 11:55:32;;;;;;;;;;;23.10;99.90;;;;;;7331876;19;108952;-87
2023/08/25 11:58:05;;;;;;;;;;;23.20;99.90;;;;;;7334381;19;110722;-88
2023/08/25 12:00:34;;;;;;;;;;;23.20;99.90;;;;;;7331036;19;112067;-88
2023/08/25 12:03:02;;;;;;;;;;;23.20;99.90;;;;;;7329665;19;111536;-91
2023/08/25 12:05:33;;;;;;;;;;;23.30;99.90;;;;;;7318194;19;111052;-87
2023/08/25 12:08:00;;;;;;;;;;;23.40;99.90;;;;;;7326568;19;110956;-88
2023/08/25 12:10:27;;;;;;;;;;;23.60;99.90;;;;;;7329323;19;110992;-90
2023/08/25 12:12:54;;;;;;;;;;;23.70;99.90;;;;;;7328623;19;113345;-88
2023/08/25 12:15:21;;;;;;;;;;;23.90;99.90;;;;;;7325318;19;110150;-89
2023/08/25 12:17:49;;;;;;;;;;;24.10;99.90;;;;;;7329437;19;110065;-89
2023/08/25 12:20:18;;;;;;;;;;;24.30;99.90;;;;;;7332217;19;109957;-87
2023/08/25 12:22:57;;;;;;;;;;;24.50;99.90;;;;;;7329618;19;109274;-88
2023/08/25 12:25:24;;;;;;;;;;;24.80;99.90;;;;;;7327260;19;110697;-89
2023/08/25 12:27:52;;;;;;;;;;;24.90;99.90;;;;;;7331863;19;108931;-65
2023/08/25 12:30:20;;;;;;;;;;;25.10;99.90;;;;;;7335192;19;108934;-65
2023/08/25 12:32:47;;;;;;;;;;;25.20;99.90;;;;;;7336620;19;110557;-67
2023/08/25 12:35:14;;;;;;;;;;;25.30;99.90;;;;;;7338500;19;108915;-64
2023/08/25 12:37:41;;;;;;;;;;;25.50;99.90;;;;;;7334642;19;108724;-65
2023/08/25 12:40:09;;;;;;;;;;;25.60;99.90;;;;;;7333064;19;109188;-64
2023/08/25 12:42:37;;;;;;;;;;;25.70;99.90;;;;;;7341843;19;110083;-65
2023/08/25 12:45:05;;;;;;;;;;;25.80;99.90;;;;;;7335306;19;109994;-66
2023/08/25 12:47:32;;;;;;;;;;;25.80;99.90;;;;;;7333059;19;110621;-65
2023/08/25 12:49:59;;;;;;;;;;;25.90;99.90;;;;;;7333849;19;109805;-65
2023/08/25 12:52:29;;;;;;;;;;;25.90;99.90;;;;;;7333783;19;109645;-66
2023/08/25 12:54:56;;;;;;;;;;;26.00;99.90;;;;;;7335312;19;109350;-71
2023/08/25 12:57:41;;;;;;;;;;;26.00;99.90;;;;;;7333788;19;108667;-65
2023/08/25 13:00:09;;;;;;;;;;;26.10;99.90;;;;;;7334420;19;109123;-65
2023/08/25 13:02:36;;;;;;;;;;;26.20;99.90;;;;;;7336284;19;109787;-65
2023/08/25 13:05:04;;;;;;;;;;;26.20;99.90;;;;;;7338904;19;108713;-65
2023/08/25 13:07:31;;;;;;;;;;;26.20;99.90;;;;;;7332001;19;108698;-65
2023/08/25 13:09:59;;;;;;;;;;;26.00;99.90;;;;;;7335560;19;108669;-66
2023/08/25 13:12:26;;;;;;;;;;;26.00;99.90;;;;;;7332151;19;110043;-65
2023/08/25 13:14:53;;;;;;;;;;;25.90;99.90;;;;;;7334524;19;112031;-65
2023/08/25 13:17:20;;;;;;;;;;;25.90;99.90;;;;;;7332163;19;108697;-65
2023/08/25 13:19:48;;;;;;;;;;;25.90;99.90;;;;;;7333766;19;110136;-65
2023/08/25 13:22:15;;;;;;;;;;;25.90;99.90;;;;;;7336478;19;112968;-65
2023/08/25 13:24:42;;;;;;;;;;;25.90;99.90;;;;;;7335020;19;110331;-65
2023/08/25 13:27:09;;;;;;;;;;;25.80;99.90;;;;;;7339024;19;109896;-69
2023/08/25 13:29:36;;;;;;;;;;;25.80;99.90;;;;;;7334060;19;111034;-69
2023/08/25 13:32:04;;;;;;;;;;;25.80;99.90;;;;;;7331747;19;109467;-65
2023/08/25 13:34:31;;;;;;;;;;;25.80;99.90;;;;;;7334670;19;108883;-65
2023/08/25 13:36:59;;;;;;;;;;;25.70;99.90;;;;;;7335281;19;109013;-65
2023/08/25 13:39:26;;;;;;;;;;;25.60;99.90;;;;;;7329573;19;109321;-65
2023/08/25 13:41:53;;;;;;;;;;;25.50;99.90;;;;;;7334454;19;109172;-65
2023/08/25 13:44:20;;;;;;;;;;;25.40;99.90;;;;;;7333634;19;108496;-65
2023/08/25 13:46:47;;;;;;;;;;;25.40;99.90;;;;;;7335285;19;109104;-69
2023/08/25 13:49:17;;;;;;;;;;;25.30;99.90;;;;;;7337558;19;109813;-66
2023/08/25 13:51:44;;;;;;;;;;;25.20;99.90;;;;;;7334782;19;110243;-65
2023/08/25 13:54:12;;;;;;;;;;;25.10;99.90;;;;;;7333077;19;109550;-68
2023/08/25 13:56:39;;;;;;;;;;;25.10;99.90;;;;;;7331827;19;108643;-66
2023/08/25 13:59:07;;;;;;;;;;;24.90;99.90;;;;;;7332128;19;109081;-66
2023/08/25 14:01:34;;;;;;;;;;;24.80;99.90;;;;;;7332165;19;109471;-66
2023/08/25 14:04:01;;;;;;;;;;;24.70;99.90;;;;;;7332688;19;108258;-65
2023/08/25 14:06:28;;;;;;;;;;;24.60;99.90;;;;;;7333067;19;109221;-65
2023/08/25 14:08:55;;;;;;;;;;;24.60;99.90;;;;;;7333983;19;109966;-65
2023/08/25 14:11:23;;;;;;;;;;;24.50;99.90;;;;;;7336848;19;108886;-68
2023/08/25 14:13:50;;;;;;;;;;;24.50;99.90;;;;;;7333383;19;108556;-66